Time;durP1;ratioP1;P1;durP2;ratioP2;P2;SDS_P1;SDS_P2;PMS_P1;PMS_P2;Temp;Humidity;BMP_temperature;BMP_pressure;BME280_temperature;BME280_humidity;BME280_pressure;Samples;Min_cycle;Max_cycle;Signal;HPM_P1;HPM_P2
2023/01/05 00:02:22;;;;;;;14.27;2.53;;;13.10;99.90;;;;;;6143389;23;20444;-85
2023/01/05 00:04:50;;;;;;;10.90;2.80;;;13.10;99.90;;;;;;6143475;23;20457;-86
2023/01/05 00:07:17;;;;;;;11.00;2.33;;;13.00;99.90;;;;;;6167921;23;20422;-87
2023/01/05 00:09:44;;;;;;;9.13;2.57;;;13.10;99.90;;;;;;6165807;23;20470;-87
2023/01/05 00:23:28;;;;;;;8.67;2.27;;;13.00;99.90;;;;;;6168510;23;20469;-86
2023/01/05 00:26:00;;;;;;;11.83;2.83;;;13.00;99.90;;;;;;6166856;23;20526;-85
2023/01/05 00:28:36;;;;;;;5.50;2.47;;;13.00;99.90;;;;;;6166269;23;20490;-85
2023/01/05 00:31:09;;;;;;;13.23;3.73;;;13.00;99.90;;;;;;6170612;23;20455;-87
2023/01/05 00:33:55;;;;;;;10.37;3.00;;;13.00;99.90;;;;;;6187913;22;20461;-85
2023/01/05 00:36:28;;;;;;;9.70;2.00;;;13.00;99.90;;;;;;6167156;23;20518;-86
2023/01/05 00:39:02;;;;;;;9.33;2.77;;;13.00;99.90;;;;;;6165794;23;20387;-85
2023/01/05 00:41:39;;;;;;;7.70;3.10;;;13.00;99.90;;;;;;6169419;23;20415;-86
2023/01/05 00:44:07;;;;;;;8.90;2.80;;;13.00;99.90;;;;;;6168260;23;20438;-86
2023/01/05 00:46:39;;;;;;;11.50;2.33;;;13.00;99.90;;;;;;6167138;23;20418;-86
2023/01/05 00:49:21;;;;;;;8.00;1.93;;;12.90;99.90;;;;;;6166374;23;20446;-86
2023/01/05 00:51:48;;;;;;;5.57;2.10;;;12.90;99.90;;;;;;6138563;23;20414;-87
2023/01/05 00:54:18;;;;;;;5.83;2.20;;;12.90;99.90;;;;;;6166970;23;20438;-83
2023/01/05 00:56:50;;;;;;;7.20;2.80;;;12.90;99.90;;;;;;6142663;23;20532;-85
2023/01/05 00:59:24;;;;;;;5.50;2.30;;;12.90;99.90;;;;;;6167462;23;20406;-85
2023/01/05 01:01:53;;;;;;;13.40;2.90;;;12.90;99.90;;;;;;6166596;23;20407;-82
2023/01/05 01:04:21;;;;;;;10.27;2.80;;;12.90;99.90;;;;;;6166121;23;20458;-84
2023/01/05 01:06:48;;;;;;;14.77;4.30;;;12.90;99.90;;;;;;6167883;23;20446;-87
2023/01/05 01:09:16;;;;;;;8.43;3.07;;;12.90;99.90;;;;;;6172149;23;20415;-91
2023/01/05 01:11:48;;;;;;;8.17;3.20;;;12.90;99.90;;;;;;6180841;23;20422;-89
2023/01/05 01:14:15;;;;;;;11.53;3.50;;;12.90;99.90;;;;;;6181172;23;20490;-84
2023/01/05 01:16:45;;;;;;;10.43;2.67;;;12.90;99.90;;;;;;6166762;23;20743;-85
2023/01/05 01:19:25;;;;;;;10.83;3.00;;;12.90;99.90;;;;;;6168466;23;20410;-85
2023/01/05 01:21:56;;;;;;;9.53;2.73;;;12.90;99.90;;;;;;6167346;23;20721;-84
2023/01/05 01:24:28;;;;;;;8.70;2.60;;;12.90;99.90;;;;;;6169053;23;20436;-85
2023/01/05 01:26:56;;;;;;;4.93;2.27;;;12.90;99.90;;;;;;6168865;23;20419;-86
2023/01/05 01:29:30;;;;;;;12.07;2.23;;;12.90;99.90;;;;;;6168311;23;20445;-85
2023/01/05 01:31:59;;;;;;;11.13;2.80;;;12.90;99.90;;;;;;6142160;23;20449;-85
2023/01/05 01:34:26;;;;;;;10.20;3.20;;;12.90;99.90;;;;;;6143096;23;20510;-85
2023/01/05 01:36:56;;;;;;;7.27;2.50;;;12.80;99.90;;;;;;6165597;23;20450;-86
2023/01/05 01:39:26;;;;;;;10.27;2.90;;;12.80;99.90;;;;;;6142007;23;20434;-86
2023/01/05 01:41:54;;;;;;;6.33;2.17;;;12.80;99.90;;;;;;6165633;23;20411;-86
2023/01/05 01:44:45;;;;;;;9.23;2.97;;;12.80;99.90;;;;;;6161789;23;20514;-85
2023/01/05 01:47:34;;;;;;;16.63;4.43;;;12.80;99.90;;;;;;6168651;23;20521;-85
2023/01/05 01:50:26;;;;;;;10.30;3.20;;;12.80;99.90;;;;;;6166255;23;20429;-85
2023/01/05 01:53:06;;;;;;;10.60;3.00;;;12.80;99.90;;;;;;6152156;23;20538;-84
2023/01/05 01:55:35;;;;;;;10.57;3.10;;;12.80;99.90;;;;;;6120938;23;20501;-85
2023/01/05 01:58:10;;;;;;;9.03;3.07;;;12.80;99.90;;;;;;6168509;23;20406;-84
2023/01/05 02:00:45;;;;;;;7.53;3.07;;;12.80;99.90;;;;;;6167384;23;20478;-86
2023/01/05 02:03:14;;;;;;;9.37;2.33;;;12.80;99.90;;;;;;6180119;23;20466;-91
2023/01/05 02:05:41;;;;;;;10.53;3.13;;;12.80;99.90;;;;;;6177353;23;20442;-85
2023/01/05 02:08:12;;;;;;;8.83;3.40;;;12.80;99.90;;;;;;6165919;23;20474;-85
2023/01/05 02:10:54;;;;;;;9.73;3.33;;;12.80;99.90;;;;;;6162924;23;20506;-84
2023/01/05 02:13:43;;;;;;;13.27;3.53;;;12.80;99.90;;;;;;6171816;23;20421;-86
2023/01/05 02:16:20;;;;;;;9.57;2.70;;;12.80;99.90;;;;;;6180000;23;20470;-87
2023/01/05 02:19:30;;;;;;;7.17;2.73;;;12.80;99.90;;;;;;6181430;23;20392;-89
2023/01/05 02:22:39;;;;;;;9.97;3.00;;;12.70;99.90;;;;;;6111907;23;20415;-85
2023/01/05 02:25:51;;;;;;;7.33;2.80;;;12.80;99.90;;;;;;6163979;23;20427;-85
2023/01/05 02:28:55;;;;;;;7.03;2.60;;;12.70;99.90;;;;;;6163669;23;20415;-85
2023/01/05 02:31:33;;;;;;;11.57;2.83;;;12.70;99.90;;;;;;6163455;23;20418;-85
2023/01/05 02:34:11;;;;;;;9.27;2.27;;;12.70;99.90;;;;;;6160909;23;20406;-83
2023/01/05 02:36:44;;;;;;;7.80;2.60;;;12.70;99.90;;;;;;6160702;23;20509;-85
2023/01/05 02:39:22;;;;;;;11.30;2.60;;;12.70;99.90;;;;;;6160768;23;20438;-86
2023/01/05 02:42:08;;;;;;;13.87;2.83;;;12.70;99.90;;;;;;6161016;23;20465;-84
2023/01/05 02:44:38;;;;;;;11.93;3.17;;;12.70;99.90;;;;;;6162312;23;20431;-85
2023/01/05 02:47:24;;;;;;;11.23;3.43;;;12.70;99.90;;;;;;6162669;23;20419;-85
2023/01/05 02:49:59;;;;;;;12.40;3.50;;;12.60;99.90;;;;;;6162320;23;20414;-84
2023/01/05 02:52:30;;;;;;;13.43;3.00;;;12.60;99.90;;;;;;6163713;23;20918;-85
2023/01/05 02:55:04;;;;;;;7.37;3.00;;;12.60;99.90;;;;;;6162116;23;20490;-86
2023/01/05 02:57:49;;;;;;;11.27;2.60;;;12.60;99.90;;;;;;6162112;23;20461;-85
2023/01/05 03:00:42;;;;;;;11.00;3.50;;;12.50;99.90;;;;;;6167396;23;20411;-85
2023/01/05 03:03:27;;;;;;;8.00;2.97;;;12.50;99.90;;;;;;6175658;23;20438;-87
2023/01/05 03:06:02;;;;;;;11.27;3.20;;;12.50;99.90;;;;;;6175535;23;20433;-86
2023/01/05 03:08:34;;;;;;;15.10;2.90;;;12.50;99.90;;;;;;6166692;23;20402;-86
2023/01/05 03:14:19;;;;;;;8.40;2.60;;;12.50;99.90;;;;;;6167790;23;20446;-86
2023/01/05 03:16:50;;;;;;;9.60;3.40;;;12.60;99.90;;;;;;6165053;23;20446;-86
2023/01/05 03:37:10;;;;;;;10.30;2.47;;;12.50;99.90;;;;;;6161602;23;20446;-84
2023/01/05 03:39:41;;;;;;;16.63;4.17;;;12.50;99.90;;;;;;6159850;23;20414;-86
2023/01/05 03:42:12;;;;;;;13.53;3.20;;;12.50;99.90;;;;;;6160045;23;20905;-84
2023/01/05 03:44:42;;;;;;;10.33;3.30;;;12.50;99.90;;;;;;6163017;23;20830;-86
2023/01/05 03:47:13;;;;;;;10.77;2.87;;;12.50;99.90;;;;;;6160803;23;20411;-87
2023/01/05 03:49:41;;;;;;;8.27;2.70;;;12.50;99.90;;;;;;6163823;23;20420;-85
2023/01/05 03:52:11;;;;;;;12.13;2.97;;;12.50;99.90;;;;;;6161774;23;20716;-87
2023/01/05 03:54:39;;;;;;;9.40;3.57;;;12.50;99.90;;;;;;6163488;23;20438;-87
2023/01/05 03:57:06;;;;;;;11.93;3.87;;;12.60;99.90;;;;;;6162394;23;21017;-86
2023/01/05 03:59:36;;;;;;;13.33;3.30;;;12.60;99.90;;;;;;6164481;23;20811;-87
2023/01/05 04:02:03;;;;;;;15.30;3.90;;;12.50;99.90;;;;;;6162299;23;20503;-87
2023/01/05 04:04:30;;;;;;;12.97;3.13;;;12.50;99.90;;;;;;6160772;23;20427;-86
2023/01/05 04:07:01;;;;;;;13.83;3.80;;;12.50;99.90;;;;;;6137955;23;20400;-87
2023/01/05 04:09:29;;;;;;;7.47;2.20;;;12.50;99.90;;;;;;6161187;23;20414;-87
2023/01/05 04:11:56;;;;;;;15.30;3.33;;;12.50;99.90;;;;;;6160896;23;20421;-86
2023/01/05 04:14:22;;;;;;;10.87;2.63;;;12.50;99.90;;;;;;6162232;23;20427;-88
2023/01/05 04:16:49;;;;;;;10.50;2.27;;;12.50;99.90;;;;;;6163162;23;20457;-88
2023/01/05 04:19:18;;;;;;;13.20;3.30;;;12.50;99.90;;;;;;6161472;23;20466;-86
2023/01/05 04:21:45;;;;;;;12.27;2.50;;;12.50;99.90;;;;;;6160892;23;20414;-87
2023/01/05 04:24:12;;;;;;;11.40;2.93;;;12.50;99.90;;;;;;6163127;23;20441;-88
2023/01/05 04:26:40;;;;;;;13.70;3.00;;;12.50;99.90;;;;;;6162309;23;20403;-88
2023/01/05 04:29:10;;;;;;;9.03;3.17;;;12.50;99.90;;;;;;6161684;23;20741;-87
2023/01/05 04:31:38;;;;;;;13.00;3.07;;;12.50;99.90;;;;;;6161760;23;20506;-88
2023/01/05 04:34:08;;;;;;;17.93;3.43;;;12.50;99.90;;;;;;6163349;23;20425;-87
2023/01/05 04:36:40;;;;;;;16.33;4.17;;;12.50;99.90;;;;;;6178275;23;20544;-89
2023/01/05 04:39:07;;;;;;;11.37;3.47;;;12.50;99.90;;;;;;6181900;23;20426;-90
2023/01/05 04:41:35;;;;;;;14.17;4.50;;;12.50;99.90;;;;;;6182973;23;20422;-91
2023/01/05 04:44:02;;;;;;;10.47;2.80;;;12.50;99.90;;;;;;6183570;23;20418;-85
2023/01/05 04:46:31;;;;;;;13.07;2.67;;;12.50;99.90;;;;;;6173765;23;20407;-90
2023/01/05 04:48:58;;;;;;;12.20;2.87;;;12.50;99.90;;;;;;6164343;23;20494;-85
2023/01/05 04:51:24;;;;;;;14.33;4.13;;;12.50;99.90;;;;;;6160009;23;20510;-85
2023/01/05 04:53:51;;;;;;;14.83;2.83;;;12.50;99.90;;;;;;6160807;23;20489;-85
2023/01/05 04:56:18;;;;;;;12.30;4.50;;;12.50;99.90;;;;;;6161484;23;20514;-86
2023/01/05 04:58:45;;;;;;;11.93;3.20;;;12.50;99.90;;;;;;6161600;23;20417;-87
2023/01/05 05:01:13;;;;;;;10.73;3.40;;;12.50;99.90;;;;;;6159525;23;20411;-86
2023/01/05 05:03:40;;;;;;;9.00;2.90;;;12.50;99.90;;;;;;6158393;23;20490;-87
2023/01/05 05:06:10;;;;;;;15.83;3.63;;;12.50;99.90;;;;;;6160374;23;20435;-86
2023/01/05 05:08:40;;;;;;;6.83;2.80;;;12.50;99.90;;;;;;6158557;23;20445;-88
2023/01/05 05:11:07;;;;;;;15.13;3.37;;;12.50;99.90;;;;;;6158875;23;20430;-87
2023/01/05 05:13:34;;;;;;;14.97;3.97;;;12.50;99.90;;;;;;6160089;23;20748;-86
2023/01/05 05:16:03;;;;;;;11.80;2.63;;;12.40;99.90;;;;;;6158476;23;20474;-86
2023/01/05 05:18:30;;;;;;;15.93;3.63;;;12.40;99.90;;;;;;6158830;23;20397;-85
2023/01/05 05:20:58;;;;;;;18.83;3.10;;;12.30;99.90;;;;;;6160531;23;20406;-86
2023/01/05 05:23:25;;;;;;;10.63;3.10;;;12.30;99.90;;;;;;6159184;23;20430;-87
2023/01/05 05:25:52;;;;;;;13.60;3.60;;;12.30;99.90;;;;;;6160572;23;20462;-87
2023/01/05 05:28:21;;;;;;;11.87;2.73;;;12.30;99.90;;;;;;6160476;23;20402;-87
2023/01/05 05:30:49;;;;;;;15.27;2.90;;;12.30;99.90;;;;;;6159301;23;20906;-86
2023/01/05 05:33:15;;;;;;;12.93;3.00;;;12.30;99.90;;;;;;6158031;23;20418;-87
2023/01/05 05:35:42;;;;;;;14.57;3.70;;;12.30;99.90;;;;;;6134310;23;20796;-87
2023/01/05 05:38:09;;;;;;;15.50;3.40;;;12.40;99.90;;;;;;6160765;23;20445;-86
2023/01/05 05:40:36;;;;;;;10.50;4.00;;;12.30;99.90;;;;;;6162024;23;20411;-86
2023/01/05 05:43:03;;;;;;;16.43;3.63;;;12.30;99.90;;;;;;6169015;23;20490;-87
2023/01/05 05:45:33;;;;;;;13.90;3.23;;;12.30;99.90;;;;;;6180445;23;20531;-87
2023/01/05 05:48:15;;;;;;;11.10;2.63;;;12.30;99.90;;;;;;6179812;23;20427;-89
2023/01/05 05:50:43;;;;;;;14.83;3.33;;;12.30;99.90;;;;;;6168601;23;20395;-86
2023/01/05 05:53:10;;;;;;;10.67;2.70;;;12.30;99.90;;;;;;6160891;23;20445;-86
2023/01/05 05:55:37;;;;;;;10.33;3.43;;;12.30;99.90;;;;;;6161275;23;20431;-85
2023/01/05 05:58:04;;;;;;;9.70;2.70;;;12.30;99.90;;;;;;6157914;23;20442;-85
2023/01/05 06:00:31;;;;;;;15.20;4.47;;;12.30;99.90;;;;;;6160069;23;20486;-84
2023/01/05 06:02:57;;;;;;;12.63;3.60;;;12.30;99.90;;;;;;6157235;23;20422;-85
2023/01/05 06:05:24;;;;;;;9.47;2.73;;;12.30;99.90;;;;;;6157237;23;20839;-84
2023/01/05 06:07:51;;;;;;;14.83;7.00;;;12.30;99.90;;;;;;6158172;23;20419;-85
2023/01/05 06:10:18;;;;;;;10.57;4.00;;;12.30;99.90;;;;;;6156298;23;20482;-84
2023/01/05 06:12:45;;;;;;;12.27;4.90;;;12.30;99.90;;;;;;6176336;23;20419;-89
2023/01/05 06:15:12;;;;;;;14.03;3.87;;;12.40;99.90;;;;;;6181060;23;20426;-88
2023/01/05 06:17:41;;;;;;;10.90;3.07;;;12.40;99.90;;;;;;6181854;23;20461;-90
2023/01/05 06:20:09;;;;;;;14.00;4.67;;;12.30;99.90;;;;;;6182165;23;20391;-90
2023/01/05 06:22:36;;;;;;;14.93;3.43;;;12.30;99.90;;;;;;6182942;23;20410;-89
2023/01/05 06:25:03;;;;;;;16.10;4.10;;;12.30;99.90;;;;;;6161592;23;20437;-88
2023/01/05 06:27:30;;;;;;;9.33;2.90;;;12.30;99.90;;;;;;6162767;23;20415;-86
2023/01/05 06:29:57;;;;;;;16.53;3.93;;;12.30;99.90;;;;;;6160529;23;20415;-87
2023/01/05 06:32:24;;;;;;;23.27;11.53;;;12.30;99.90;;;;;;6160314;23;20410;-86
2023/01/05 06:34:51;;;;;;;8.60;3.23;;;12.30;99.90;;;;;;6160546;23;20438;-87
2023/01/05 06:37:18;;;;;;;17.07;4.30;;;12.20;99.90;;;;;;6161653;23;20450;-87
2023/01/05 06:39:44;;;;;;;14.97;4.30;;;12.30;99.90;;;;;;6163691;23;20930;-87
2023/01/05 06:42:11;;;;;;;10.13;4.13;;;12.30;99.90;;;;;;6169466;23;20429;-88
2023/01/05 06:44:38;;;;;;;12.93;3.80;;;12.30;99.90;;;;;;6173438;23;20429;-88
2023/01/05 06:47:05;;;;;;;12.40;3.57;;;12.30;99.90;;;;;;6177700;23;21297;-86
2023/01/05 06:49:32;;;;;;;21.40;4.27;;;12.30;99.90;;;;;;6177526;23;20403;-86
2023/01/05 06:51:59;;;;;;;10.60;3.10;;;12.30;99.90;;;;;;6176008;23;20417;-87
2023/01/05 06:54:26;;;;;;;10.27;3.53;;;12.30;99.90;;;;;;6174547;23;20531;-89
2023/01/05 06:56:56;;;;;;;15.27;3.80;;;12.30;99.90;;;;;;6174388;23;20435;-85
2023/01/05 06:59:23;;;;;;;11.57;4.60;;;12.20;99.90;;;;;;6166467;23;20403;-89
2023/01/05 07:01:50;;;;;;;13.60;3.87;;;12.30;99.90;;;;;;6164197;23;20411;-86
2023/01/05 07:04:17;;;;;;;10.50;3.33;;;12.30;99.90;;;;;;6161118;23;20456;-88
2023/01/05 07:06:47;;;;;;;14.13;3.20;;;12.20;99.90;;;;;;6163318;23;20426;-87
2023/01/05 07:09:15;;;;;;;17.80;5.00;;;12.20;99.90;;;;;;6174677;23;20412;-90
2023/01/05 07:11:42;;;;;;;18.50;4.37;;;12.20;99.90;;;;;;6154654;23;20419;-87
2023/01/05 07:14:09;;;;;;;18.40;3.07;;;12.20;99.90;;;;;;6154580;23;20581;-87
2023/01/05 07:16:36;;;;;;;16.70;4.30;;;12.20;99.90;;;;;;6174955;23;20434;-86
2023/01/05 07:19:03;;;;;;;17.40;4.07;;;12.20;99.90;;;;;;6161734;23;20418;-87
2023/01/05 07:21:29;;;;;;;16.13;3.30;;;12.30;99.90;;;;;;6159802;23;20418;-86
2023/01/05 07:23:56;;;;;;;11.27;4.40;;;12.20;99.90;;;;;;6159877;23;20431;-85
2023/01/05 07:26:25;;;;;;;9.50;3.60;;;12.20;99.90;;;;;;6160708;23;20411;-87
2023/01/05 07:28:52;;;;;;;13.10;4.47;;;12.30;99.90;;;;;;6160430;23;20430;-86
2023/01/05 07:31:19;;;;;;;15.17;3.87;;;12.30;99.90;;;;;;6160154;23;21142;-87
2023/01/05 07:33:46;;;;;;;16.83;3.83;;;12.30;99.90;;;;;;6160002;23;20813;-87
2023/01/05 07:36:13;;;;;;;10.60;3.40;;;12.20;99.90;;;;;;6161356;23;20820;-86
2023/01/05 07:38:40;;;;;;;13.57;5.70;;;12.30;99.90;;;;;;6161239;23;20507;-86
2023/01/05 07:41:07;;;;;;;14.60;3.87;;;12.20;99.90;;;;;;6161043;23;20750;-88
2023/01/05 07:43:37;;;;;;;13.83;3.57;;;12.30;99.90;;;;;;6161470;23;20411;-86
2023/01/05 07:46:04;;;;;;;12.07;4.50;;;12.30;99.90;;;;;;6162969;23;20478;-87
2023/01/05 07:48:31;;;;;;;14.40;3.60;;;12.30;99.90;;;;;;6162628;23;20421;-86
2023/01/05 07:51:04;;;;;;;13.23;4.40;;;12.20;99.90;;;;;;6164268;23;20414;-86
2023/01/05 07:53:34;;;;;;;15.03;4.03;;;12.30;99.90;;;;;;6160311;23;20559;-87
2023/01/05 07:56:10;;;;;;;15.37;4.87;;;12.30;99.90;;;;;;6136561;23;20496;-86
2023/01/05 07:58:37;;;;;;;15.17;4.37;;;12.30;99.90;;;;;;6162012;23;20439;-85
2023/01/05 08:01:08;;;;;;;16.17;4.10;;;12.20;99.90;;;;;;6166227;23;20411;-85
2023/01/05 08:03:39;;;;;;;13.50;3.30;;;12.20;99.90;;;;;;6162638;23;20387;-85
2023/01/05 08:06:12;;;;;;;18.57;4.77;;;12.20;99.90;;;;;;6160660;23;20965;-86
2023/01/05 08:08:42;;;;;;;14.60;4.43;;;12.20;99.90;;;;;;6159380;23;20414;-87
2023/01/05 08:11:11;;;;;;;14.03;3.63;;;12.20;99.90;;;;;;6159162;23;20421;-85
2023/01/05 08:16:23;;;;;;;11.23;3.23;;;12.20;99.90;;;;;;6161245;23;20395;-85
2023/01/05 08:18:50;;;;;;;28.80;4.37;;;12.20;99.90;;;;;;6166526;23;20439;-86
2023/01/05 08:21:17;;;;;;;16.27;3.80;;;12.30;99.90;;;;;;6175587;23;20403;-87
2023/01/05 08:23:46;;;;;;;10.43;4.10;;;12.20;99.90;;;;;;6166152;23;20407;-88
2023/01/05 08:26:16;;;;;;;11.80;4.73;;;12.30;99.90;;;;;;6165989;23;20426;-87
2023/01/05 08:28:43;;;;;;;12.97;4.00;;;12.20;99.90;;;;;;6163509;23;20462;-87
2023/01/05 08:31:15;;;;;;;17.97;3.57;;;12.30;99.90;;;;;;6162672;23;20410;-85
2023/01/05 08:33:44;;;;;;;11.87;5.07;;;12.20;99.90;;;;;;6160127;23;20485;-85
2023/01/05 08:36:18;;;;;;;17.33;4.13;;;12.30;99.90;;;;;;6159198;23;20445;-86
2023/01/05 08:38:49;;;;;;;16.93;3.57;;;12.30;99.90;;;;;;6157118;23;20835;-86
2023/01/05 08:41:18;;;;;;;16.40;6.40;;;12.30;99.90;;;;;;6159168;23;20903;-85
2023/01/05 08:43:52;;;;;;;20.10;4.50;;;12.30;99.90;;;;;;6168470;23;20421;-88
2023/01/05 08:46:21;;;;;;;13.80;6.27;;;12.30;99.90;;;;;;6165899;23;20466;-86
2023/01/05 08:48:49;;;;;;;13.70;4.00;;;12.40;99.90;;;;;;6163236;23;20466;-88
2023/01/05 08:51:17;;;;;;;15.80;5.00;;;12.40;99.90;;;;;;6163402;23;20481;-85
2023/01/05 08:53:44;;;;;;;15.00;4.50;;;12.40;99.90;;;;;;6163825;23;20410;-87
2023/01/05 08:56:11;;;;;;;14.53;3.97;;;12.40;99.90;;;;;;6164173;23;20435;-86
2023/01/05 08:58:47;;;;;;;14.97;3.80;;;12.50;99.90;;;;;;6163123;23;20449;-86
2023/01/05 09:01:17;;;;;;;10.27;3.50;;;12.50;99.90;;;;;;6159888;23;20411;-86
2023/01/05 09:03:44;;;;;;;18.93;4.50;;;12.40;99.90;;;;;;6161518;23;20425;-85
2023/01/05 09:06:12;;;;;;;12.40;4.27;;;12.50;99.90;;;;;;6160161;23;20514;-86
2023/01/05 09:08:41;;;;;;;15.23;3.97;;;12.50;99.90;;;;;;6161132;23;20447;-87
2023/01/05 09:11:18;;;;;;;17.70;3.60;;;12.50;99.90;;;;;;6162135;23;20652;-87
2023/01/05 09:13:50;;;;;;;14.83;3.57;;;12.50;99.90;;;;;;6159109;23;20414;-86
2023/01/05 09:16:21;;;;;;;18.37;5.30;;;12.50;99.90;;;;;;6161311;23;20430;-85
2023/01/05 09:19:09;;;;;;;18.57;4.67;;;12.60;99.90;;;;;;6161438;23;20443;-86
2023/01/05 09:21:38;;;;;;;12.83;3.90;;;12.60;99.90;;;;;;6169868;23;20428;-87
2023/01/05 09:24:06;;;;;;;11.20;4.10;;;12.50;99.90;;;;;;6169460;23;20804;-86
2023/01/05 09:26:33;;;;;;;12.10;4.00;;;12.60;99.90;;;;;;6166231;23;20486;-89
2023/01/05 09:29:02;;;;;;;17.00;4.40;;;12.60;99.90;;;;;;6167686;23;20414;-86
2023/01/05 09:31:29;;;;;;;16.73;4.30;;;12.70;99.90;;;;;;6164826;23;20417;-86
2023/01/05 09:33:57;;;;;;;15.80;4.50;;;12.80;99.90;;;;;;6162903;23;20453;-85
2023/01/05 09:36:27;;;;;;;17.07;4.00;;;12.80;99.90;;;;;;6162702;23;20911;-87
2023/01/05 09:38:57;;;;;;;14.33;4.10;;;12.80;99.90;;;;;;6163278;23;20782;-85
2023/01/05 09:41:35;;;;;;;15.80;4.13;;;12.90;99.90;;;;;;6136277;23;20490;-85
2023/01/05 09:44:29;;;;;;;12.40;4.13;;;12.90;99.90;;;;;;6163019;23;20395;-88
2023/01/05 09:47:03;;;;;;;13.30;3.40;;;13.00;99.90;;;;;;6174362;23;20431;-85
2023/01/05 09:49:32;;;;;;;13.00;4.23;;;13.10;99.90;;;;;;6160645;23;20407;-85
2023/01/05 09:52:07;;;;;;;19.20;5.20;;;13.20;99.90;;;;;;6162073;23;20490;-87
2023/01/05 09:54:36;;;;;;;20.47;5.27;;;13.20;99.90;;;;;;6164435;23;20435;-84
2023/01/05 09:57:18;;;;;;;25.83;8.00;;;13.10;99.90;;;;;;6162690;23;20457;-86
2023/01/05 10:00:02;;;;;;;21.57;6.37;;;12.90;99.90;;;;;;6161434;23;20486;-84
2023/01/05 10:02:57;;;;;;;18.37;4.40;;;12.90;99.90;;;;;;6159094;23;20407;-85
2023/01/05 10:05:30;;;;;;;15.83;4.70;;;12.90;99.90;;;;;;6162423;23;20437;-83
2023/01/05 10:08:01;;;;;;;16.67;5.07;;;12.90;99.90;;;;;;6159959;23;20486;-84
2023/01/05 10:10:37;;;;;;;17.77;5.10;;;13.00;99.90;;;;;;6157645;23;20395;-85
2023/01/05 10:13:07;;;;;;;18.83;5.20;;;13.00;99.90;;;;;;6133780;23;20414;-84
2023/01/05 10:15:46;;;;;;;14.30;4.50;;;13.10;99.90;;;;;;6156477;23;20435;-85
2023/01/05 10:18:17;;;;;;;24.10;4.90;;;13.10;99.90;;;;;;6135225;23;20438;-85
2023/01/05 10:21:18;;;;;;;13.17;3.83;;;13.00;99.90;;;;;;6159581;23;20407;-84
2023/01/05 10:24:12;;;;;;;15.40;4.20;;;13.00;99.90;;;;;;6157931;23;20454;-86
2023/01/05 10:26:43;;;;;;;15.17;4.57;;;13.00;99.90;;;;;;6157390;23;20406;-85
2023/01/05 10:29:47;;;;;;;14.60;5.07;;;13.00;99.90;;;;;;6158267;23;20788;-87
2023/01/05 10:32:24;;;;;;;13.13;5.90;;;12.90;99.90;;;;;;6157425;23;20437;-85
2023/01/05 10:35:21;;;;;;;19.67;5.73;;;13.00;99.90;;;;;;6161114;23;20439;-87
2023/01/05 10:38:28;;;;;;;17.57;4.07;;;13.00;99.90;;;;;;6111395;23;20447;-86
2023/01/05 10:41:23;;;;;;;17.90;3.60;;;13.00;99.90;;;;;;6161583;23;20399;-87
2023/01/05 10:44:06;;;;;;;13.53;4.20;;;13.10;99.90;;;;;;6160904;23;20790;-87
2023/01/05 10:46:41;;;;;;;16.67;4.20;;;13.10;99.90;;;;;;6164571;23;20417;-85
2023/01/05 10:49:26;;;;;;;12.93;3.93;;;13.20;99.90;;;;;;6175558;23;20486;-89
2023/01/05 10:51:55;;;;;;;15.90;7.13;;;13.20;99.90;;;;;;6153233;23;20391;-85
2023/01/05 10:54:25;;;;;;;15.07;4.30;;;13.20;99.90;;;;;;6165798;23;20516;-85
2023/01/05 10:56:52;;;;;;;15.20;5.33;;;13.20;99.90;;;;;;6156146;23;20411;-86
2023/01/05 10:59:19;;;;;;;11.60;3.90;;;13.20;99.90;;;;;;6159429;23;20443;-85
2023/01/05 11:01:48;;;;;;;19.57;4.43;;;13.30;99.90;;;;;;6159877;23;20827;-85
2023/01/05 11:04:23;;;;;;;17.73;8.60;;;13.30;99.90;;;;;;6161359;23;20438;-85
2023/01/05 11:07:06;;;;;;;17.60;5.20;;;13.30;99.90;;;;;;6158054;23;20429;-85
2023/01/05 11:09:38;;;;;;;14.93;4.10;;;13.20;99.90;;;;;;6163243;23;20435;-88
2023/01/05 11:12:19;;;;;;;19.13;6.93;;;13.20;99.90;;;;;;6177808;23;20437;-87
2023/01/05 11:14:51;;;;;;;13.73;3.70;;;13.20;99.90;;;;;;6174565;23;20462;-85
2023/01/05 11:17:27;;;;;;;10.10;4.17;;;13.20;99.90;;;;;;6161438;23;20419;-86
2023/01/05 11:20:00;;;;;;;16.30;4.60;;;13.20;99.90;;;;;;6163056;23;20407;-85
2023/01/05 11:22:39;;;;;;;15.77;4.47;;;13.20;99.90;;;;;;6160502;23;20601;-85
2023/01/05 11:25:28;;;;;;;16.73;4.90;;;13.30;99.90;;;;;;6161509;23;20875;-85
2023/01/05 11:28:10;;;;;;;12.07;4.80;;;13.20;99.90;;;;;;6161317;23;20445;-87
2023/01/05 11:31:00;;;;;;;13.00;3.90;;;13.30;99.90;;;;;;6160425;23;20421;-85
2023/01/05 11:33:30;;;;;;;9.00;3.43;;;13.30;99.90;;;;;;6162764;23;20453;-85
2023/01/05 11:36:00;;;;;;;10.87;4.10;;;13.30;99.90;;;;;;6162106;23;20434;-85
2023/01/05 11:38:29;;;;;;;17.03;4.47;;;13.30;99.90;;;;;;6162772;23;20453;-85
2023/01/05 11:40:59;;;;;;;19.77;4.00;;;13.40;99.90;;;;;;6160510;23;20410;-83
2023/01/05 11:43:37;;;;;;;13.73;4.57;;;13.40;99.90;;;;;;6160217;23;20402;-85
2023/01/05 11:46:04;;;;;;;21.13;4.57;;;13.40;99.90;;;;;;6159556;23;20431;-86
2023/01/05 11:48:34;;;;;;;12.57;4.40;;;13.40;99.90;;;;;;6159066;23;20423;-84
2023/01/05 11:51:01;;;;;;;16.37;6.10;;;13.50;99.90;;;;;;6161089;23;20419;-86
2023/01/05 11:53:36;;;;;;;15.40;4.13;;;13.50;99.90;;;;;;6135092;23;20442;-86
2023/01/05 11:56:13;;;;;;;9.20;3.50;;;13.50;99.90;;;;;;6159245;23;20792;-85
2023/01/05 11:58:50;;;;;;;11.20;4.27;;;13.40;99.90;;;;;;6158296;23;20438;-86
2023/01/05 12:01:39;;;;;;;11.67;4.30;;;13.50;99.90;;;;;;6159858;23;20422;-85
2023/01/05 12:04:39;;;;;;;19.77;4.77;;;13.40;99.90;;;;;;6161412;23;20407;-86
2023/01/05 12:07:34;;;;;;;10.87;3.97;;;13.50;99.90;;;;;;6161424;23;20430;-85
2023/01/05 12:10:21;;;;;;;12.17;3.30;;;13.50;99.90;;;;;;6160764;23;20414;-86
2023/01/05 12:13:17;;;;;;;9.73;4.17;;;13.40;99.90;;;;;;6161894;23;20505;-85
2023/01/05 12:16:00;;;;;;;15.73;4.70;;;13.50;99.70;;;;;;6169015;23;20437;-88
2023/01/05 12:18:43;;;;;;;8.67;3.00;;;13.50;99.70;;;;;;6164279;23;20447;-84
2023/01/05 12:21:22;;;;;;;10.63;4.53;;;13.40;99.70;;;;;;6160389;23;20425;-86
2023/01/05 12:24:16;;;;;;;14.90;4.33;;;13.50;99.80;;;;;;6138136;23;20403;-86
2023/01/05 12:27:06;;;;;;;9.50;3.10;;;13.50;99.50;;;;;;6156685;23;20411;-84
2023/01/05 12:30:17;;;;;;;18.23;3.93;;;13.40;99.40;;;;;;6158112;23;20415;-84
2023/01/05 12:33:20;;;;;;;9.60;3.50;;;13.50;99.40;;;;;;6158470;23;20410;-83
2023/01/05 12:36:11;;;;;;;12.07;3.90;;;13.60;99.60;;;;;;6175522;23;20418;-89
2023/01/05 12:39:02;;;;;;;10.30;3.90;;;13.80;99.60;;;;;;6180492;23;20427;-90
2023/01/05 12:41:50;;;;;;;13.10;4.00;;;13.80;99.00;;;;;;6182254;23;20399;-89
2023/01/05 12:44:48;;;;;;;9.00;3.00;;;13.90;98.70;;;;;;6181118;23;20430;-85
2023/01/05 12:47:35;;;;;;;13.00;3.60;;;13.90;97.90;;;;;;6169884;23;20430;-84
2023/01/05 12:50:02;;;;;;;9.80;3.27;;;13.80;97.40;;;;;;6160692;23;20391;-84
2023/01/05 12:52:32;;;;;;;10.80;2.90;;;13.70;97.70;;;;;;6161429;23;20407;-85
2023/01/05 12:55:17;;;;;;;12.33;3.77;;;13.70;98.00;;;;;;6158707;23;20431;-87
2023/01/05 12:57:53;;;;;;;14.77;4.50;;;13.70;98.10;;;;;;6159692;23;20415;-86
2023/01/05 13:00:20;;;;;;;12.90;3.27;;;13.70;98.20;;;;;;6159784;23;20413;-87
2023/01/05 13:02:55;;;;;;;13.23;3.40;;;13.70;98.10;;;;;;6159715;23;20403;-85
2023/01/05 13:05:32;;;;;;;10.30;3.97;;;13.70;98.10;;;;;;6161374;23;20434;-84
2023/01/05 13:08:09;;;;;;;11.70;3.80;;;13.70;98.10;;;;;;6161004;23;20725;-86
2023/01/05 13:10:56;;;;;;;10.50;3.30;;;13.70;98.10;;;;;;6158910;23;20766;-85
2023/01/05 13:13:31;;;;;;;11.77;3.40;;;13.70;98.10;;;;;;6158825;23;20398;-84
2023/01/05 13:16:24;;;;;;;11.90;4.57;;;13.70;98.20;;;;;;6157463;23;20430;-83
2023/01/05 13:19:16;;;;;;;11.80;3.57;;;13.60;98.30;;;;;;6159340;23;20460;-85
2023/01/05 13:21:53;;;;;;;21.67;4.53;;;13.60;98.30;;;;;;6160090;23;20443;-86
2023/01/05 13:24:30;;;;;;;7.43;3.20;;;13.60;98.40;;;;;;6157133;23;20746;-86
2023/01/05 13:27:02;;;;;;;15.93;3.73;;;13.60;98.50;;;;;;6159054;23;20421;-85
2023/01/05 13:29:34;;;;;;;13.10;3.10;;;13.60;98.60;;;;;;6161509;23;20425;-86
2023/01/05 13:32:15;;;;;;;13.87;4.77;;;13.60;98.70;;;;;;6162222;23;20414;-85
2023/01/05 13:34:49;;;;;;;10.27;3.70;;;13.60;98.60;;;;;;6131958;23;20420;-85
2023/01/05 13:37:43;;;;;;;12.60;3.73;;;13.60;98.80;;;;;;6131109;23;20412;-87
2023/01/05 13:40:39;;;;;;;12.53;3.80;;;13.60;98.90;;;;;;6105978;23;20464;-85
2023/01/05 13:43:13;;;;;;;10.90;3.73;;;13.60;99.00;;;;;;6105816;23;20744;-85
2023/01/05 13:46:25;;;;;;;9.43;3.40;;;13.60;99.10;;;;;;6105292;23;20542;-85
2023/01/05 13:49:19;;;;;;;13.57;3.80;;;13.50;99.20;;;;;;6107907;23;21081;-87